sensor_id;sensor_type;location;lat;lon;timestamp;pressure;altitude;pressure_sealevel;temperature;humidity
33697;BME280;20031;43.416;23.232;2023-05-19T00:00:54;100276.88;;;12.74;88.86
33697;BME280;20031;43.416;23.232;2023-05-19T00:03:20;100279.66;;;12.73;88.84
33697;BME280;20031;43.416;23.232;2023-05-19T00:05:47;100278.19;;;12.70;89.05
33697;BME280;20031;43.416;23.232;2023-05-19T00:08:15;100270.69;;;12.67;88.90
33697;BME280;20031;43.416;23.232;2023-05-19T00:10:41;100277.03;;;12.65;89.43
33697;BME280;20031;43.416;23.232;2023-05-19T00:13:07;100273.00;;;12.62;89.46
33697;BME280;20031;43.416;23.232;2023-05-19T00:15:33;100267.25;;;12.59;89.78
33697;BME280;20031;43.416;23.232;2023-05-19T00:17:58;100268.41;;;12.56;89.71
33697;BME280;20031;43.416;23.232;2023-05-19T00:20:24;100264.34;;;12.54;89.62
33697;BME280;20031;43.416;23.232;2023-05-19T00:22:49;100268.09;;;12.51;89.94
33697;BME280;20031;43.416;23.232;2023-05-19T00:25:15;100260.44;;;12.50;89.92
33697;BME280;20031;43.416;23.232;2023-05-19T00:27:41;100249.66;;;12.45;90.45
33697;BME280;20031;43.416;23.232;2023-05-19T00:30:07;100256.84;;;12.43;90.38
33697;BME280;20031;43.416;23.232;2023-05-19T00:32:33;100263.19;;;12.40;90.19
33697;BME280;20031;43.416;23.232;2023-05-19T00:34:58;100267.63;;;12.40;90.48
33697;BME280;20031;43.416;23.232;2023-05-19T00:37:25;100267.97;;;12.37;90.57
33697;BME280;20031;43.416;23.232;2023-05-19T00:39:50;100274.47;;;12.33;90.37
33697;BME280;20031;43.416;23.232;2023-05-19T00:42:16;100276.44;;;12.31;90.73
33697;BME280;20031;43.416;23.232;2023-05-19T00:44:41;100273.34;;;12.27;90.57
33697;BME280;20031;43.416;23.232;2023-05-19T00:47:07;100268.94;;;12.28;90.80
33697;BME280;20031;43.416;23.232;2023-05-19T00:49:33;100264.69;;;12.27;91.06
33697;BME280;20031;43.416;23.232;2023-05-19T00:52:00;100274.97;;;12.28;90.38
33697;BME280;20031;43.416;23.232;2023-05-19T00:54:27;100272.53;;;12.27;90.37
33697;BME280;20031;43.416;23.232;2023-05-19T00:56:55;100268.94;;;12.28;90.14
33697;BME280;20031;43.416;23.232;2023-05-19T00:59:22;100269.41;;;12.23;90.21
33697;BME280;20031;43.416;23.232;2023-05-19T01:01:48;100279.22;;;12.22;89.84
33697;BME280;20031;43.416;23.232;2023-05-19T01:04:20;100268.31;;;12.18;89.75
33697;BME280;20031;43.416;23.232;2023-05-19T01:06:49;100276.44;;;12.15;90.09
33697;BME280;20031;43.416;23.232;2023-05-19T01:09:21;100274.16;;;12.12;90.38
33697;BME280;20031;43.416;23.232;2023-05-19T01:11:48;100270.91;;;12.10;90.06
33697;BME280;20031;43.416;23.232;2023-05-19T01:14:14;100270.38;;;12.07;90.02
33697;BME280;20031;43.416;23.232;2023-05-19T01:16:44;100264.84;;;12.02;90.51
33697;BME280;20031;43.416;23.232;2023-05-19T01:32:50;100271.88;;;12.01;91.12
33697;BME280;20031;43.416;23.232;2023-05-19T01:35:17;100274.31;;;12.03;91.32
33697;BME280;20031;43.416;23.232;2023-05-19T01:37:44;100272.34;;;12.05;90.84
33697;BME280;20031;43.416;23.232;2023-05-19T01:40:10;100276.78;;;12.04;90.68
33697;BME280;20031;43.416;23.232;2023-05-19T01:42:39;100271.88;;;12.01;90.83
33697;BME280;20031;43.416;23.232;2023-05-19T01:45:06;100268.44;;;12.01;90.75
33697;BME280;20031;43.416;23.232;2023-05-19T01:47:39;100265.97;;;11.99;91.19
33697;BME280;20031;43.416;23.232;2023-05-19T01:50:05;100273.16;;;11.97;91.08
33697;BME280;20031;43.416;23.232;2023-05-19T01:52:31;100274.97;;;11.97;91.01
33697;BME280;20031;43.416;23.232;2023-05-19T01:54:57;100271.69;;;11.95;90.80
33697;BME280;20031;43.416;23.232;2023-05-19T02:00:55;100278.22;;;11.91;90.80
33697;BME280;20031;43.416;23.232;2023-05-19T02:06:29;100277.88;;;11.86;90.77
33697;BME280;20031;43.416;23.232;2023-05-19T02:09:06;100283.44;;;11.83;90.58
33697;BME280;20031;43.416;23.232;2023-05-19T02:11:39;100282.75;;;11.81;90.57
33697;BME280;20031;43.416;23.232;2023-05-19T02:14:15;100288.97;;;11.80;91.15
33697;BME280;20031;43.416;23.232;2023-05-19T02:16:44;100288.47;;;11.76;90.85
33697;BME280;20031;43.416;23.232;2023-05-19T02:19:23;100288.78;;;11.73;90.53
33697;BME280;20031;43.416;23.232;2023-05-19T02:21:49;100294.50;;;11.69;91.01
33697;BME280;20031;43.416;23.232;2023-05-19T02:24:15;100296.59;;;11.66;90.90
33697;BME280;20031;43.416;23.232;2023-05-19T02:26:40;100300.19;;;11.65;91.19
33697;BME280;20031;43.416;23.232;2023-05-19T02:29:06;100311.59;;;11.64;90.94
33697;BME280;20031;43.416;23.232;2023-05-19T02:31:31;100306.53;;;11.62;90.83
33697;BME280;20031;43.416;23.232;2023-05-19T02:33:57;100307.34;;;11.63;91.40
33697;BME280;20031;43.416;23.232;2023-05-19T02:36:22;100307.34;;;11.63;91.23
33697;BME280;20031;43.416;23.232;2023-05-19T02:38:47;100306.84;;;11.59;91.28
33697;BME280;20031;43.416;23.232;2023-05-19T02:41:13;100307.00;;;11.58;91.12
33697;BME280;20031;43.416;23.232;2023-05-19T02:43:38;100305.38;;;11.57;91.31
33697;BME280;20031;43.416;23.232;2023-05-19T02:46:04;100301.13;;;11.56;91.42
33697;BME280;20031;43.416;23.232;2023-05-19T02:48:29;100301.44;;;11.53;91.01
33697;BME280;20031;43.416;23.232;2023-05-19T02:50:55;100309.25;;;11.53;91.08
33697;BME280;20031;43.416;23.232;2023-05-19T02:53:20;100299.00;;;11.51;91.42
33697;BME280;20031;43.416;23.232;2023-05-19T02:55:45;100300.78;;;11.51;91.25
33697;BME280;20031;43.416;23.232;2023-05-19T02:58:11;100300.78;;;11.51;91.35
33697;BME280;20031;43.416;23.232;2023-05-19T03:00:36;100305.84;;;11.52;91.62
33697;BME280;20031;43.416;23.232;2023-05-19T03:03:02;100307.50;;;11.53;91.32
33697;BME280;20031;43.416;23.232;2023-05-19T03:05:30;100318.72;;;11.54;91.54
33697;BME280;20031;43.416;23.232;2023-05-19T03:07:55;100315.16;;;11.55;91.55
33697;BME280;20031;43.416;23.232;2023-05-19T03:10:21;100317.59;;;11.56;91.12
33697;BME280;20031;43.416;23.232;2023-05-19T03:12:47;100317.44;;;11.58;91.43
33697;BME280;20031;43.416;23.232;2023-05-19T03:15:12;100324.16;;;11.60;91.62
33697;BME280;20031;43.416;23.232;2023-05-19T03:17:39;100324.94;;;11.61;91.26
33697;BME280;20031;43.416;23.232;2023-05-19T03:20:05;100332.47;;;11.64;91.39
33697;BME280;20031;43.416;23.232;2023-05-19T03:22:31;100339.97;;;11.67;91.27
33697;BME280;20031;43.416;23.232;2023-05-19T03:24:57;100337.19;;;11.68;91.41
33697;BME280;20031;43.416;23.232;2023-05-19T03:27:23;100336.88;;;11.71;91.20
33697;BME280;20031;43.416;23.232;2023-05-19T03:29:48;100345.88;;;11.76;91.38
33697;BME280;20031;43.416;23.232;2023-05-19T03:32:14;100334.47;;;11.77;91.28
33697;BME280;20031;43.416;23.232;2023-05-19T03:34:40;100342.78;;;11.81;91.36
33697;BME280;20031;43.416;23.232;2023-05-19T03:37:05;100340.69;;;11.84;91.32
33697;BME280;20031;43.416;23.232;2023-05-19T03:39:30;100337.75;;;11.87;91.35
33697;BME280;20031;43.416;23.232;2023-05-19T03:41:56;100349.31;;;11.85;91.17
33697;BME280;20031;43.416;23.232;2023-05-19T03:44:21;100342.16;;;11.87;91.25
33697;BME280;20031;43.416;23.232;2023-05-19T03:46:47;100350.47;;;11.90;91.00
33697;BME280;20031;43.416;23.232;2023-05-19T03:49:12;100347.22;;;11.96;91.34
33697;BME280;20031;43.416;23.232;2023-05-19T03:51:39;100359.94;;;11.99;91.30
33697;BME280;20031;43.416;23.232;2023-05-19T03:54:05;100356.41;;;12.08;91.49
33697;BME280;20031;43.416;23.232;2023-05-19T03:56:31;100354.44;;;12.10;90.94
33697;BME280;20031;43.416;23.232;2023-05-19T03:58:56;100360.13;;;12.14;91.26
33697;BME280;20031;43.416;23.232;2023-05-19T04:01:22;100355.75;;;12.22;90.99
33697;BME280;20031;43.416;23.232;2023-05-19T04:03:47;100358.22;;;12.31;91.24
33697;BME280;20031;43.416;23.232;2023-05-19T04:06:13;100359.69;;;12.42;90.67
33697;BME280;20031;43.416;23.232;2023-05-19T04:08:38;100364.28;;;12.48;90.35
33697;BME280;20031;43.416;23.232;2023-05-19T04:11:04;100364.44;;;12.62;90.26
33697;BME280;20031;43.416;23.232;2023-05-19T04:13:31;100367.53;;;12.73;89.45
33697;BME280;20031;43.416;23.232;2023-05-19T04:15:57;100373.75;;;12.80;89.40
33697;BME280;20031;43.416;23.232;2023-05-19T04:18:22;100374.59;;;12.89;88.52
33697;BME280;20031;43.416;23.232;2023-05-19T04:20:48;100373.41;;;12.91;88.23
33697;BME280;20031;43.416;23.232;2023-05-19T04:23:13;100370.97;;;12.98;87.49
33697;BME280;20031;43.416;23.232;2023-05-19T04:25:39;100373.09;;;13.10;87.93
33697;BME280;20031;43.416;23.232;2023-05-19T04:28:05;100371.75;;;13.22;87.50
33697;BME280;20031;43.416;23.232;2023-05-19T04:30:30;100370.44;;;13.26;86.79
33697;BME280;20031;43.416;23.232;2023-05-19T04:32:56;100367.31;;;13.30;85.91
33697;BME280;20031;43.416;23.232;2023-05-19T04:35:22;100367.44;;;13.37;85.96
33697;BME280;20031;43.416;23.232;2023-05-19T04:37:48;100368.53;;;13.50;85.68
33697;BME280;20031;43.416;23.232;2023-05-19T04:40:13;100363.75;;;13.62;84.87
33697;BME280;20031;43.416;23.232;2023-05-19T04:42:39;100355.22;;;13.68;84.22
33697;BME280;20031;43.416;23.232;2023-05-19T04:45:10;100360.09;;;13.78;83.83
33697;BME280;20031;43.416;23.232;2023-05-19T04:47:38;100358.34;;;13.93;83.47
33697;BME280;20031;43.416;23.232;2023-05-19T04:50:04;100361.75;;;14.02;83.10
33697;BME280;20031;43.416;23.232;2023-05-19T04:52:31;100363.50;;;14.09;82.37
33697;BME280;20031;43.416;23.232;2023-05-19T04:54:57;100363.47;;;14.17;81.79
33697;BME280;20031;43.416;23.232;2023-05-19T04:57:22;100368.91;;;14.16;81.65
33697;BME280;20031;43.416;23.232;2023-05-19T04:59:48;100367.66;;;14.26;81.65
33697;BME280;20031;43.416;23.232;2023-05-19T05:02:14;100370.25;;;14.34;80.24
33697;BME280;20031;43.416;23.232;2023-05-19T05:04:39;100378.47;;;14.31;80.59
33697;BME280;20031;43.416;23.232;2023-05-19T05:07:07;100378.69;;;14.44;81.08
33697;BME280;20031;43.416;23.232;2023-05-19T05:09:33;100380.97;;;14.47;79.89
33697;BME280;20031;43.416;23.232;2023-05-19T05:12:00;100374.84;;;14.54;80.12
33697;BME280;20031;43.416;23.232;2023-05-19T05:14:26;100374.59;;;14.64;80.03
33697;BME280;20031;43.416;23.232;2023-05-19T05:16:51;100375.44;;;14.78;79.84
33697;BME280;20031;43.416;23.232;2023-05-19T05:19:17;100384.53;;;14.90;79.63
33697;BME280;20031;43.416;23.232;2023-05-19T05:21:43;100377.66;;;15.04;79.60
33697;BME280;20031;43.416;23.232;2023-05-19T05:24:09;100379.19;;;15.21;79.19
33697;BME280;20031;43.416;23.232;2023-05-19T05:26:35;100380.63;;;15.23;78.10
33697;BME280;20031;43.416;23.232;2023-05-19T05:29:01;100383.94;;;15.17;77.82
33697;BME280;20031;43.416;23.232;2023-05-19T05:31:27;100379.91;;;15.29;78.45
33697;BME280;20031;43.416;23.232;2023-05-19T05:33:53;100375.56;;;15.50;78.26
33697;BME280;20031;43.416;23.232;2023-05-19T05:36:18;100372.03;;;15.58;77.31
33697;BME280;20031;43.416;23.232;2023-05-19T05:38:44;100377.09;;;15.59;76.65
33697;BME280;20031;43.416;23.232;2023-05-19T05:41:09;100386.16;;;15.71;76.49
33697;BME280;20031;43.416;23.232;2023-05-19T05:43:34;100376.34;;;15.80;76.45
33697;BME280;20031;43.416;23.232;2023-05-19T05:46:00;100387.47;;;15.82;75.81
33697;BME280;20031;43.416;23.232;2023-05-19T05:48:26;100386.28;;;15.98;76.42
33697;BME280;20031;43.416;23.232;2023-05-19T05:50:52;100388.69;;;16.14;76.25
33697;BME280;20031;43.416;23.232;2023-05-19T05:53:19;100387.47;;;16.31;75.25
33697;BME280;20031;43.416;23.232;2023-05-19T05:55:46;100395.25;;;16.39;73.64
33697;BME280;20031;43.416;23.232;2023-05-19T05:58:12;100386.47;;;16.53;73.24
33697;BME280;20031;43.416;23.232;2023-05-19T06:00:40;100389.59;;;16.63;72.26
33697;BME280;20031;43.416;23.232;2023-05-19T06:03:11;100393.88;;;16.85;72.30
33697;BME280;20031;43.416;23.232;2023-05-19T06:05:37;100390.63;;;17.10;71.96
33697;BME280;20031;43.416;23.232;2023-05-19T06:08:03;100394.72;;;17.19;70.48
33697;BME280;20031;43.416;23.232;2023-05-19T06:10:29;100395.69;;;17.11;69.83
33697;BME280;20031;43.416;23.232;2023-05-19T06:12:54;100408.88;;;17.11;69.16
33697;BME280;20031;43.416;23.232;2023-05-19T06:15:21;100408.00;;;17.25;70.21
33697;BME280;20031;43.416;23.232;2023-05-19T06:17:46;100411.91;;;17.36;69.47
33697;BME280;20031;43.416;23.232;2023-05-19T06:20:12;100410.16;;;17.49;69.23
33697;BME280;20031;43.416;23.232;2023-05-19T06:22:38;100405.72;;;17.56;68.54
33697;BME280;20031;43.416;23.232;2023-05-19T06:25:04;100411.06;;;17.62;67.90
33697;BME280;20031;43.416;23.232;2023-05-19T06:27:30;100405.81;;;17.69;67.71
33697;BME280;20031;43.416;23.232;2023-05-19T06:29:56;100411.72;;;17.77;67.40
33697;BME280;20031;43.416;23.232;2023-05-19T06:32:21;100399.59;;;17.83;67.28
33697;BME280;20031;43.416;23.232;2023-05-19T06:34:47;100399.28;;;18.11;68.08
33697;BME280;20031;43.416;23.232;2023-05-19T06:37:21;100403.03;;;18.30;67.57
33697;BME280;20031;43.416;23.232;2023-05-19T06:39:48;100404.31;;;18.53;67.91
33697;BME280;20031;43.416;23.232;2023-05-19T06:42:16;100413.69;;;18.81;68.04
33697;BME280;20031;43.416;23.232;2023-05-19T06:44:46;100413.31;;;19.03;67.62
33697;BME280;20031;43.416;23.232;2023-05-19T06:47:11;100409.22;;;19.20;66.85
33697;BME280;20031;43.416;23.232;2023-05-19T06:49:37;100413.28;;;19.36;66.54
33697;BME280;20031;43.416;23.232;2023-05-19T06:52:02;100410.63;;;19.55;66.33
33697;BME280;20031;43.416;23.232;2023-05-19T06:54:28;100417.28;;;19.70;65.34
33697;BME280;20031;43.416;23.232;2023-05-19T06:56:53;100405.88;;;19.89;64.38
33697;BME280;20031;43.416;23.232;2023-05-19T06:59:19;100410.66;;;20.05;63.81
33697;BME280;20031;43.416;23.232;2023-05-19T07:01:46;100403.50;;;20.18;63.13
33697;BME280;20031;43.416;23.232;2023-05-19T07:04:11;100406.16;;;20.18;63.18
33697;BME280;20031;43.416;23.232;2023-05-19T07:06:37;100401.53;;;20.38;62.47
33697;BME280;20031;43.416;23.232;2023-05-19T07:09:02;100397.56;;;20.53;61.80
33697;BME280;20031;43.416;23.232;2023-05-19T07:11:29;100404.63;;;20.66;61.23
33697;BME280;20031;43.416;23.232;2023-05-19T07:13:55;100405.84;;;20.63;60.45
33697;BME280;20031;43.416;23.232;2023-05-19T07:16:20;100403.84;;;20.59;59.57
33697;BME280;20031;43.416;23.232;2023-05-19T07:18:46;100403.34;;;20.44;60.21
33697;BME280;20031;43.416;23.232;2023-05-19T07:21:11;100401.47;;;20.51;60.68
33697;BME280;20031;43.416;23.232;2023-05-19T07:23:37;100400.56;;;20.70;60.84
33697;BME280;20031;43.416;23.232;2023-05-19T07:26:02;100399.75;;;20.63;60.44
33697;BME280;20031;43.416;23.232;2023-05-19T07:28:28;100396.94;;;20.58;60.64
33697;BME280;20031;43.416;23.232;2023-05-19T07:30:53;100409.06;;;20.78;60.56
33697;BME280;20031;43.416;23.232;2023-05-19T07:33:19;100407.22;;;21.03;59.83
33697;BME280;20031;43.416;23.232;2023-05-19T07:35:44;100402.63;;;21.16;59.24
33697;BME280;20031;43.416;23.232;2023-05-19T07:38:10;100408.56;;;21.36;58.71
33697;BME280;20031;43.416;23.232;2023-05-19T07:40:36;100399.84;;;21.71;57.03
33697;BME280;20031;43.416;23.232;2023-05-19T07:43:02;100395.69;;;21.93;55.66
33697;BME280;20031;43.416;23.232;2023-05-19T07:45:27;100396.44;;;21.82;55.18
33697;BME280;20031;43.416;23.232;2023-05-19T07:47:53;100394.53;;;21.71;56.09
33697;BME280;20031;43.416;23.232;2023-05-19T07:50:18;100397.09;;;21.60;56.22
33697;BME280;20031;43.416;23.232;2023-05-19T07:52:44;100404.31;;;21.71;56.74
33697;BME280;20031;43.416;23.232;2023-05-19T07:55:10;100398.13;;;21.95;56.49
33697;BME280;20031;43.416;23.232;2023-05-19T07:57:36;100397.22;;;22.01;55.37
33697;BME280;20031;43.416;23.232;2023-05-19T08:00:02;100390.56;;;22.09;54.95
33697;BME280;20031;43.416;23.232;2023-05-19T08:02:32;100388.06;;;22.14;54.79
33697;BME280;20031;43.416;23.232;2023-05-19T08:04:58;100384.97;;;22.35;54.60
33697;BME280;20031;43.416;23.232;2023-05-19T08:07:23;100389.25;;;22.48;53.92
33697;BME280;20031;43.416;23.232;2023-05-19T08:09:49;100384.31;;;22.51;53.66
33697;BME280;20031;43.416;23.232;2023-05-19T08:12:14;100390.25;;;22.76;54.24
33697;BME280;20031;43.416;23.232;2023-05-19T08:14:40;100392.69;;;22.89;53.54
33697;BME280;20031;43.416;23.232;2023-05-19T08:17:05;100394.53;;;22.77;52.78
33697;BME280;20031;43.416;23.232;2023-05-19T08:19:30;100391.78;;;22.83;52.55
33697;BME280;20031;43.416;23.232;2023-05-19T08:21:56;100396.19;;;22.89;52.40
33697;BME280;20031;43.416;23.232;2023-05-19T08:24:22;100392.03;;;22.82;52.53
33697;BME280;20031;43.416;23.232;2023-05-19T08:26:47;100391.94;;;22.59;52.27
33697;BME280;20031;43.416;23.232;2023-05-19T08:29:13;100392.00;;;22.30;52.36
33697;BME280;20031;43.416;23.232;2023-05-19T08:31:39;100394.69;;;22.41;53.45
33697;BME280;20031;43.416;23.232;2023-05-19T08:34:04;100396.88;;;22.44;53.26
33697;BME280;20031;43.416;23.232;2023-05-19T08:36:30;100397.16;;;22.54;52.77
33697;BME280;20031;43.416;23.232;2023-05-19T08:38:55;100399.59;;;22.67;53.07
33697;BME280;20031;43.416;23.232;2023-05-19T08:41:21;100395.03;;;22.85;53.06
33697;BME280;20031;43.416;23.232;2023-05-19T08:43:47;100399.13;;;23.10;52.59
33697;BME280;20031;43.416;23.232;2023-05-19T08:46:15;100391.47;;;23.48;52.46
33697;BME280;20031;43.416;23.232;2023-05-19T08:48:41;100391.59;;;23.76;51.05
33697;BME280;20031;43.416;23.232;2023-05-19T08:51:13;100401.06;;;23.83;49.88
33697;BME280;20031;43.416;23.232;2023-05-19T08:53:47;100388.50;;;24.07;50.48
33697;BME280;20031;43.416;23.232;2023-05-19T08:56:18;100389.44;;;24.28;49.35
33697;BME280;20031;43.416;23.232;2023-05-19T08:58:48;100394.28;;;24.31;49.24
33697;BME280;20031;43.416;23.232;2023-05-19T09:01:14;100389.47;;;24.56;49.85
33697;BME280;20031;43.416;23.232;2023-05-19T09:03:42;100399.34;;;24.72;49.66
33697;BME280;20031;43.416;23.232;2023-05-19T09:06:07;100388.66;;;24.72;48.35
33697;BME280;20031;43.416;23.232;2023-05-19T09:08:33;100385.00;;;24.62;48.60
33697;BME280;20031;43.416;23.232;2023-05-19T09:10:59;100386.31;;;24.59;48.52
33697;BME280;20031;43.416;23.232;2023-05-19T09:13:25;100388.72;;;24.33;48.48
33697;BME280;20031;43.416;23.232;2023-05-19T09:15:51;100381.25;;;24.18;47.96
33697;BME280;20031;43.416;23.232;2023-05-19T09:18:17;100379.75;;;24.22;47.53
33697;BME280;20031;43.416;23.232;2023-05-19T09:20:43;100372.66;;;24.39;47.57
33697;BME280;20031;43.416;23.232;2023-05-19T09:23:16;100366.66;;;24.49;47.23
33697;BME280;20031;43.416;23.232;2023-05-19T09:25:51;100363.44;;;24.63;47.47
33697;BME280;20031;43.416;23.232;2023-05-19T09:28:30;100362.34;;;24.59;47.38
33697;BME280;20031;43.416;23.232;2023-05-19T09:31:00;100364.91;;;24.54;46.38
33697;BME280;20031;43.416;23.232;2023-05-19T09:33:26;100356.59;;;24.67;47.53
33697;BME280;20031;43.416;23.232;2023-05-19T09:35:53;100357.09;;;24.80;46.57
33697;BME280;20031;43.416;23.232;2023-05-19T09:38:20;100358.34;;;25.06;47.61
33697;BME280;20031;43.416;23.232;2023-05-19T09:40:47;100355.72;;;25.27;45.00
33697;BME280;20031;43.416;23.232;2023-05-19T09:43:14;100360.44;;;25.41;44.98
33697;BME280;20031;43.416;23.232;2023-05-19T09:45:40;100357.81;;;25.63;44.87
33697;BME280;20031;43.416;23.232;2023-05-19T09:48:06;100359.75;;;25.88;45.49
33697;BME280;20031;43.416;23.232;2023-05-19T09:50:32;100354.31;;;26.05;44.28
33697;BME280;20031;43.416;23.232;2023-05-19T09:52:58;100357.00;;;25.83;42.93
33697;BME280;20031;43.416;23.232;2023-05-19T09:55:27;100362.56;;;25.61;43.00
33697;BME280;20031;43.416;23.232;2023-05-19T09:57:56;100361.22;;;25.58;43.53
33697;BME280;20031;43.416;23.232;2023-05-19T10:00:22;100358.13;;;25.87;44.83
33697;BME280;20031;43.416;23.232;2023-05-19T10:02:48;100347.53;;;26.19;44.88
33697;BME280;20031;43.416;23.232;2023-05-19T10:05:18;100349.41;;;26.18;44.36
33697;BME280;20031;43.416;23.232;2023-05-19T10:07:45;100354.78;;;25.97;44.28
33697;BME280;20031;43.416;23.232;2023-05-19T10:10:13;100353.09;;;25.91;43.91
33697;BME280;20031;43.416;23.232;2023-05-19T10:12:39;100348.41;;;25.76;44.65
33697;BME280;20031;43.416;23.232;2023-05-19T10:15:09;100344.56;;;26.15;45.92
33697;BME280;20031;43.416;23.232;2023-05-19T10:17:39;100341.22;;;25.82;43.62
33697;BME280;20031;43.416;23.232;2023-05-19T10:20:13;100348.50;;;25.27;45.48
33697;BME280;20031;43.416;23.232;2023-05-19T10:22:44;100342.03;;;25.40;45.92
33697;BME280;20031;43.416;23.232;2023-05-19T10:25:11;100350.28;;;25.60;45.19
33697;BME280;20031;43.416;23.232;2023-05-19T10:27:54;100344.22;;;25.85;45.09
33697;BME280;20031;43.416;23.232;2023-05-19T10:30:26;100345.47;;;26.25;44.59
33697;BME280;20031;43.416;23.232;2023-05-19T10:32:52;100340.91;;;26.47;42.84
33697;BME280;20031;43.416;23.232;2023-05-19T10:39:03;100333.69;;;26.79;43.03
33697;BME280;20031;43.416;23.232;2023-05-19T10:47:05;100329.22;;;27.26;43.88
33697;BME280;20031;43.416;23.232;2023-05-19T10:49:34;100329.00;;;27.37;42.78
33697;BME280;20031;43.416;23.232;2023-05-19T10:52:00;100326.66;;;27.50;43.29
33697;BME280;20031;43.416;23.232;2023-05-19T10:54:42;100326.91;;;27.44;41.13
33697;BME280;20031;43.416;23.232;2023-05-19T10:57:17;100323.88;;;27.30;41.18
33697;BME280;20031;43.416;23.232;2023-05-19T10:59:44;100319.22;;;27.52;41.87
33697;BME280;20031;43.416;23.232;2023-05-19T11:02:09;100318.94;;;27.54;41.11
33697;BME280;20031;43.416;23.232;2023-05-19T11:04:53;100312.53;;;27.60;39.40
33697;BME280;20031;43.416;23.232;2023-05-19T11:07:22;100317.50;;;27.41;39.19
33697;BME280;20031;43.416;23.232;2023-05-19T11:09:52;100317.09;;;27.64;40.37
33697;BME280;20031;43.416;23.232;2023-05-19T11:12:22;100314.06;;;27.46;38.52
33697;BME280;20031;43.416;23.232;2023-05-19T11:14:51;100313.94;;;27.26;39.00
33697;BME280;20031;43.416;23.232;2023-05-19T11:17:17;100314.22;;;27.25;37.81
33697;BME280;20031;43.416;23.232;2023-05-19T11:19:56;100307.03;;;27.30;39.13
33697;BME280;20031;43.416;23.232;2023-05-19T11:22:26;100305.44;;;27.39;37.96
33697;BME280;20031;43.416;23.232;2023-05-19T11:24:56;100296.63;;;27.43;37.88
33697;BME280;20031;43.416;23.232;2023-05-19T11:27:29;100291.13;;;27.60;37.72
33697;BME280;20031;43.416;23.232;2023-05-19T11:29:57;100293.00;;;27.59;37.91
33697;BME280;20031;43.416;23.232;2023-05-19T11:32:30;100282.81;;;27.61;38.21
33697;BME280;20031;43.416;23.232;2023-05-19T11:34:57;100289.31;;;27.75;38.24
33697;BME280;20031;43.416;23.232;2023-05-19T11:37:23;100283.94;;;27.75;37.99
33697;BME280;20031;43.416;23.232;2023-05-19T11:39:50;100288.28;;;28.01;39.40
33697;BME280;20031;43.416;23.232;2023-05-19T11:42:16;100280.84;;;28.18;38.70
33697;BME280;20031;43.416;23.232;2023-05-19T11:44:42;100273.88;;;28.36;39.25
33697;BME280;20031;43.416;23.232;2023-05-19T11:47:12;100270.66;;;28.49;38.19
33697;BME280;20031;43.416;23.232;2023-05-19T11:49:42;100284.34;;;28.58;37.68
33697;BME280;20031;43.416;23.232;2023-05-19T11:52:08;100267.72;;;28.71;38.43
33697;BME280;20031;43.416;23.232;2023-05-19T11:54:33;100278.72;;;28.79;37.41
33697;BME280;20031;43.416;23.232;2023-05-19T11:57:01;100267.47;;;28.47;37.54
33697;BME280;20031;43.416;23.232;2023-05-19T11:59:37;100277.06;;;28.68;37.80
33697;BME280;20031;43.416;23.232;2023-05-19T12:04:48;100274.66;;;28.86;36.54
33697;BME280;20031;43.416;23.232;2023-05-19T12:07:18;100270.13;;;28.87;36.61
33697;BME280;20031;43.416;23.232;2023-05-19T12:09:45;100268.25;;;28.78;36.08
33697;BME280;20031;43.416;23.232;2023-05-19T12:12:19;100263.44;;;28.45;36.98
33697;BME280;20031;43.416;23.232;2023-05-19T12:14:49;100263.69;;;28.48;37.61
33697;BME280;20031;43.416;23.232;2023-05-19T12:17:17;100258.59;;;28.57;38.13
33697;BME280;20031;43.416;23.232;2023-05-19T12:19:45;100253.47;;;28.90;38.40
33697;BME280;20031;43.416;23.232;2023-05-19T12:22:11;100243.56;;;28.85;37.49
33697;BME280;20031;43.416;23.232;2023-05-19T12:24:38;100242.72;;;28.95;37.44
33697;BME280;20031;43.416;23.232;2023-05-19T12:27:18;100242.16;;;29.03;37.13
33697;BME280;20031;43.416;23.232;2023-05-19T12:29:55;100239.72;;;29.11;35.99
33697;BME280;20031;43.416;23.232;2023-05-19T12:32:25;100237.56;;;29.13;36.93
33697;BME280;20031;43.416;23.232;2023-05-19T12:34:52;100225.19;;;29.27;36.97
33697;BME280;20031;43.416;23.232;2023-05-19T12:37:17;100227.69;;;29.04;36.53
33697;BME280;20031;43.416;23.232;2023-05-19T12:39:44;100217.22;;;28.97;36.82
33697;BME280;20031;43.416;23.232;2023-05-19T12:42:10;100220.50;;;28.70;36.20
33697;BME280;20031;43.416;23.232;2023-05-19T12:44:45;100217.31;;;28.73;36.57
33697;BME280;20031;43.416;23.232;2023-05-19T12:47:12;100214.59;;;28.78;36.65
33697;BME280;20031;43.416;23.232;2023-05-19T12:49:53;100216.50;;;28.72;36.03
33697;BME280;20031;43.416;23.232;2023-05-19T12:52:20;100207.38;;;28.63;36.00
33697;BME280;20031;43.416;23.232;2023-05-19T12:54:49;100197.72;;;28.57;36.28
33697;BME280;20031;43.416;23.232;2023-05-19T12:57:24;100201.69;;;28.89;38.55
33697;BME280;20031;43.416;23.232;2023-05-19T12:59:50;100200.88;;;28.89;36.33
33697;BME280;20031;43.416;23.232;2023-05-19T13:02:18;100196.34;;;28.80;35.96
33697;BME280;20031;43.416;23.232;2023-05-19T13:04:45;100195.31;;;28.76;36.51
33697;BME280;20031;43.416;23.232;2023-05-19T13:07:13;100193.41;;;28.81;36.98
33697;BME280;20031;43.416;23.232;2023-05-19T13:09:39;100187.72;;;28.97;37.88
33697;BME280;20031;43.416;23.232;2023-05-19T13:12:05;100187.22;;;28.81;37.05